sensor_id;sensor_type;location;lat;lon;timestamp;P1;durP1;ratioP1;P2;durP2;ratioP2
43883;SDS011;71973;52.018;5.810;2023-08-06T00:01:48;2.73;;;2.00;;
43883;SDS011;71973;52.018;5.810;2023-08-06T00:04:13;2.73;;;2.10;;
43883;SDS011;71973;52.018;5.810;2023-08-06T00:06:39;2.40;;;1.80;;
43883;SDS011;71973;52.018;5.810;2023-08-06T00:09:04;2.30;;;1.70;;
43883;SDS011;71973;52.018;5.810;2023-08-06T00:11:30;3.33;;;2.10;;
43883;SDS011;71973;52.018;5.810;2023-08-06T00:13:56;2.00;;;1.80;;
43883;SDS011;71973;52.018;5.810;2023-08-06T00:16:21;2.90;;;1.97;;
43883;SDS011;71973;52.018;5.810;2023-08-06T00:18:47;3.30;;;2.20;;
43883;SDS011;71973;52.018;5.810;2023-08-06T00:21:12;2.87;;;2.13;;
43883;SDS011;71973;52.018;5.810;2023-08-06T00:23:38;2.77;;;2.20;;
43883;SDS011;71973;52.018;5.810;2023-08-06T00:28:29;3.28;;;1.80;;
43883;SDS011;71973;52.018;5.810;2023-08-06T00:30:55;2.70;;;2.00;;
43883;SDS011;71973;52.018;5.810;2023-08-06T00:33:22;3.42;;;1.70;;
43883;SDS011;71973;52.018;5.810;2023-08-06T00:35:48;3.55;;;2.17;;
43883;SDS011;71973;52.018;5.810;2023-08-06T00:38:13;2.90;;;2.10;;
43883;SDS011;71973;52.018;5.810;2023-08-06T00:40:39;2.60;;;2.20;;
43883;SDS011;71973;52.018;5.810;2023-08-06T00:43:04;2.80;;;2.10;;
43883;SDS011;71973;52.018;5.810;2023-08-06T00:45:30;2.57;;;2.10;;
43883;SDS011;71973;52.018;5.810;2023-08-06T00:47:59;2.40;;;2.03;;
43883;SDS011;71973;52.018;5.810;2023-08-06T00:50:25;3.33;;;2.17;;
43883;SDS011;71973;52.018;5.810;2023-08-06T00:52:51;2.43;;;1.87;;
43883;SDS011;71973;52.018;5.810;2023-08-06T00:55:17;3.10;;;2.10;;
43883;SDS011;71973;52.018;5.810;2023-08-06T00:57:43;4.03;;;2.20;;
43883;SDS011;71973;52.018;5.810;2023-08-06T01:00:09;2.27;;;1.67;;
43883;SDS011;71973;52.018;5.810;2023-08-06T01:02:35;2.30;;;1.90;;
43883;SDS011;71973;52.018;5.810;2023-08-06T01:05:00;2.58;;;1.90;;
43883;SDS011;71973;52.018;5.810;2023-08-06T01:10:23;3.40;;;2.17;;
43883;SDS011;71973;52.018;5.810;2023-08-06T01:13:16;3.38;;;2.10;;
43883;SDS011;71973;52.018;5.810;2023-08-06T01:15:49;3.03;;;1.80;;
43883;SDS011;71973;52.018;5.810;2023-08-06T01:18:16;2.95;;;2.08;;
43883;SDS011;71973;52.018;5.810;2023-08-06T01:20:42;2.53;;;1.92;;
43883;SDS011;71973;52.018;5.810;2023-08-06T01:23:08;2.92;;;2.13;;
43883;SDS011;71973;52.018;5.810;2023-08-06T01:25:34;2.93;;;2.07;;
43883;SDS011;71973;52.018;5.810;2023-08-06T01:28:40;3.22;;;2.13;;
43883;SDS011;71973;52.018;5.810;2023-08-06T01:31:10;2.75;;;2.05;;
43883;SDS011;71973;52.018;5.810;2023-08-06T01:33:52;3.60;;;1.95;;
43883;SDS011;71973;52.018;5.810;2023-08-06T01:38:44;3.40;;;2.20;;
43883;SDS011;71973;52.018;5.810;2023-08-06T01:41:10;2.23;;;1.90;;
43883;SDS011;71973;52.018;5.810;2023-08-06T01:43:36;2.87;;;2.10;;
43883;SDS011;71973;52.018;5.810;2023-08-06T01:46:01;2.40;;;1.77;;
43883;SDS011;71973;52.018;5.810;2023-08-06T01:48:27;3.10;;;2.20;;
43883;SDS011;71973;52.018;5.810;2023-08-06T01:50:52;4.27;;;1.80;;
43883;SDS011;71973;52.018;5.810;2023-08-06T01:53:18;2.77;;;2.03;;
43883;SDS011;71973;52.018;5.810;2023-08-06T01:55:47;2.20;;;1.90;;
43883;SDS011;71973;52.018;5.810;2023-08-06T01:58:13;2.90;;;2.20;;
43883;SDS011;71973;52.018;5.810;2023-08-06T02:00:39;2.83;;;2.00;;
43883;SDS011;71973;52.018;5.810;2023-08-06T02:03:05;3.35;;;2.13;;
43883;SDS011;71973;52.018;5.810;2023-08-06T02:05:31;4.73;;;1.87;;
43883;SDS011;71973;52.018;5.810;2023-08-06T02:07:56;2.53;;;1.90;;
43883;SDS011;71973;52.018;5.810;2023-08-06T02:10:22;2.70;;;2.17;;
43883;SDS011;71973;52.018;5.810;2023-08-06T02:12:47;2.20;;;2.00;;
43883;SDS011;71973;52.018;5.810;2023-08-06T02:15:13;2.73;;;1.77;;
43883;SDS011;71973;52.018;5.810;2023-08-06T02:17:38;2.23;;;1.73;;
43883;SDS011;71973;52.018;5.810;2023-08-06T02:20:04;2.03;;;1.67;;
43883;SDS011;71973;52.018;5.810;2023-08-06T02:22:30;2.70;;;2.00;;
43883;SDS011;71973;52.018;5.810;2023-08-06T02:24:56;2.70;;;1.93;;
43883;SDS011;71973;52.018;5.810;2023-08-06T02:27:21;2.50;;;1.93;;
43883;SDS011;71973;52.018;5.810;2023-08-06T02:29:47;3.27;;;1.90;;
43883;SDS011;71973;52.018;5.810;2023-08-06T02:32:12;2.63;;;1.63;;
43883;SDS011;71973;52.018;5.810;2023-08-06T02:34:38;4.00;;;2.50;;
43883;SDS011;71973;52.018;5.810;2023-08-06T02:37:03;3.33;;;2.10;;
43883;SDS011;71973;52.018;5.810;2023-08-06T02:39:29;3.15;;;1.83;;
43883;SDS011;71973;52.018;5.810;2023-08-06T02:41:54;2.47;;;1.93;;
43883;SDS011;71973;52.018;5.810;2023-08-06T02:44:20;3.80;;;2.20;;
43883;SDS011;71973;52.018;5.810;2023-08-06T02:46:45;2.37;;;1.80;;
43883;SDS011;71973;52.018;5.810;2023-08-06T02:49:11;2.60;;;1.70;;
43883;SDS011;71973;52.018;5.810;2023-08-06T02:51:36;3.40;;;2.07;;
43883;SDS011;71973;52.018;5.810;2023-08-06T02:54:02;2.07;;;1.70;;
43883;SDS011;71973;52.018;5.810;2023-08-06T02:56:27;2.00;;;1.63;;
43883;SDS011;71973;52.018;5.810;2023-08-06T02:58:53;3.57;;;1.90;;
43883;SDS011;71973;52.018;5.810;2023-08-06T03:01:18;2.53;;;1.97;;
43883;SDS011;71973;52.018;5.810;2023-08-06T03:03:44;3.50;;;1.70;;
43883;SDS011;71973;52.018;5.810;2023-08-06T03:06:09;2.83;;;2.00;;
43883;SDS011;71973;52.018;5.810;2023-08-06T03:08:35;2.20;;;1.93;;
43883;SDS011;71973;52.018;5.810;2023-08-06T03:11:01;2.33;;;2.00;;
43883;SDS011;71973;52.018;5.810;2023-08-06T03:13:26;2.10;;;1.90;;
43883;SDS011;71973;52.018;5.810;2023-08-06T03:18:19;3.13;;;1.90;;
43883;SDS011;71973;52.018;5.810;2023-08-06T03:20:45;3.13;;;1.98;;
43883;SDS011;71973;52.018;5.810;2023-08-06T03:23:10;2.17;;;1.77;;
43883;SDS011;71973;52.018;5.810;2023-08-06T03:25:36;3.67;;;1.60;;
43883;SDS011;71973;52.018;5.810;2023-08-06T03:28:02;2.33;;;2.00;;
43883;SDS011;71973;52.018;5.810;2023-08-06T03:30:27;2.30;;;1.73;;
43883;SDS011;71973;52.018;5.810;2023-08-06T03:32:53;2.07;;;1.87;;
43883;SDS011;71973;52.018;5.810;2023-08-06T03:35:18;2.07;;;1.70;;
43883;SDS011;71973;52.018;5.810;2023-08-06T03:37:44;1.90;;;1.70;;
43883;SDS011;71973;52.018;5.810;2023-08-06T03:40:10;3.23;;;2.30;;
43883;SDS011;71973;52.018;5.810;2023-08-06T03:42:35;3.20;;;2.10;;
43883;SDS011;71973;52.018;5.810;2023-08-06T03:45:01;3.13;;;1.80;;
43883;SDS011;71973;52.018;5.810;2023-08-06T03:47:27;2.43;;;1.83;;
43883;SDS011;71973;52.018;5.810;2023-08-06T03:49:52;2.53;;;1.90;;
43883;SDS011;71973;52.018;5.810;2023-08-06T03:52:18;2.10;;;1.90;;
43883;SDS011;71973;52.018;5.810;2023-08-06T03:54:43;1.63;;;1.43;;
43883;SDS011;71973;52.018;5.810;2023-08-06T03:57:09;2.10;;;1.70;;
43883;SDS011;71973;52.018;5.810;2023-08-06T03:59:35;2.33;;;1.70;;
43883;SDS011;71973;52.018;5.810;2023-08-06T04:02:01;1.83;;;1.47;;
43883;SDS011;71973;52.018;5.810;2023-08-06T04:04:26;2.47;;;2.00;;
43883;SDS011;71973;52.018;5.810;2023-08-06T04:06:52;1.90;;;1.50;;
43883;SDS011;71973;52.018;5.810;2023-08-06T04:09:17;2.53;;;1.90;;
43883;SDS011;71973;52.018;5.810;2023-08-06T04:11:43;1.60;;;1.50;;
43883;SDS011;71973;52.018;5.810;2023-08-06T04:14:08;2.03;;;1.80;;
43883;SDS011;71973;52.018;5.810;2023-08-06T04:16:34;2.17;;;1.90;;
43883;SDS011;71973;52.018;5.810;2023-08-06T04:18:59;2.63;;;1.40;;
43883;SDS011;71973;52.018;5.810;2023-08-06T04:21:25;2.20;;;1.60;;
43883;SDS011;71973;52.018;5.810;2023-08-06T04:23:50;2.00;;;1.80;;
43883;SDS011;71973;52.018;5.810;2023-08-06T04:26:16;1.90;;;1.60;;
43883;SDS011;71973;52.018;5.810;2023-08-06T04:28:41;1.77;;;1.60;;
43883;SDS011;71973;52.018;5.810;2023-08-06T04:31:07;1.87;;;1.53;;
43883;SDS011;71973;52.018;5.810;2023-08-06T04:33:32;1.87;;;1.70;;
43883;SDS011;71973;52.018;5.810;2023-08-06T04:35:59;2.43;;;1.53;;
43883;SDS011;71973;52.018;5.810;2023-08-06T04:38:25;1.80;;;1.55;;
43883;SDS011;71973;52.018;5.810;2023-08-06T04:40:51;4.45;;;1.85;;
43883;SDS011;71973;52.018;5.810;2023-08-06T04:43:17;2.17;;;1.60;;
43883;SDS011;71973;52.018;5.810;2023-08-06T04:45:46;1.97;;;1.70;;
43883;SDS011;71973;52.018;5.810;2023-08-06T04:48:12;1.40;;;1.30;;
43883;SDS011;71973;52.018;5.810;2023-08-06T04:50:38;1.77;;;1.42;;
43883;SDS011;71973;52.018;5.810;2023-08-06T04:53:07;1.80;;;1.23;;
43883;SDS011;71973;52.018;5.810;2023-08-06T04:55:33;1.80;;;1.50;;
43883;SDS011;71973;52.018;5.810;2023-08-06T04:57:58;1.50;;;1.40;;
43883;SDS011;71973;52.018;5.810;2023-08-06T05:00:24;1.83;;;1.50;;
43883;SDS011;71973;52.018;5.810;2023-08-06T05:02:49;5.07;;;1.77;;
43883;SDS011;71973;52.018;5.810;2023-08-06T05:05:15;1.73;;;1.40;;
43883;SDS011;71973;52.018;5.810;2023-08-06T05:07:40;2.10;;;1.47;;
43883;SDS011;71973;52.018;5.810;2023-08-06T05:10:06;1.80;;;1.50;;
43883;SDS011;71973;52.018;5.810;2023-08-06T05:12:32;2.08;;;1.52;;
43883;SDS011;71973;52.018;5.810;2023-08-06T05:14:57;1.80;;;1.50;;
43883;SDS011;71973;52.018;5.810;2023-08-06T05:17:23;2.17;;;1.40;;
43883;SDS011;71973;52.018;5.810;2023-08-06T05:19:49;1.83;;;1.42;;
43883;SDS011;71973;52.018;5.810;2023-08-06T05:22:14;2.13;;;1.70;;
43883;SDS011;71973;52.018;5.810;2023-08-06T05:24:40;1.87;;;1.57;;
43883;SDS011;71973;52.018;5.810;2023-08-06T05:27:05;4.00;;;1.40;;
43883;SDS011;71973;52.018;5.810;2023-08-06T05:29:31;2.37;;;1.80;;
43883;SDS011;71973;52.018;5.810;2023-08-06T05:31:56;1.70;;;1.33;;
43883;SDS011;71973;52.018;5.810;2023-08-06T05:34:22;1.63;;;1.30;;
43883;SDS011;71973;52.018;5.810;2023-08-06T05:36:47;1.93;;;1.33;;
43883;SDS011;71973;52.018;5.810;2023-08-06T05:39:13;4.23;;;1.50;;
43883;SDS011;71973;52.018;5.810;2023-08-06T05:41:38;3.83;;;1.70;;
43883;SDS011;71973;52.018;5.810;2023-08-06T05:44:04;1.60;;;1.50;;
43883;SDS011;71973;52.018;5.810;2023-08-06T05:46:29;1.97;;;1.50;;
43883;SDS011;71973;52.018;5.810;2023-08-06T05:48:55;2.20;;;1.63;;
43883;SDS011;71973;52.018;5.810;2023-08-06T05:51:20;2.13;;;1.73;;
43883;SDS011;71973;52.018;5.810;2023-08-06T05:53:46;2.20;;;1.53;;
43883;SDS011;71973;52.018;5.810;2023-08-06T05:56:12;1.80;;;1.70;;
43883;SDS011;71973;52.018;5.810;2023-08-06T05:58:37;1.85;;;1.60;;
43883;SDS011;71973;52.018;5.810;2023-08-06T06:01:03;1.57;;;1.40;;
43883;SDS011;71973;52.018;5.810;2023-08-06T06:03:28;2.10;;;1.60;;
43883;SDS011;71973;52.018;5.810;2023-08-06T06:05:54;2.37;;;1.53;;
43883;SDS011;71973;52.018;5.810;2023-08-06T06:08:19;1.87;;;1.53;;
43883;SDS011;71973;52.018;5.810;2023-08-06T06:10:45;3.50;;;1.47;;
43883;SDS011;71973;52.018;5.810;2023-08-06T06:13:10;3.87;;;1.70;;
43883;SDS011;71973;52.018;5.810;2023-08-06T06:15:36;1.90;;;1.50;;
43883;SDS011;71973;52.018;5.810;2023-08-06T06:18:01;1.87;;;1.60;;
43883;SDS011;71973;52.018;5.810;2023-08-06T06:20:27;1.83;;;1.43;;
43883;SDS011;71973;52.018;5.810;2023-08-06T06:22:52;2.30;;;1.80;;
43883;SDS011;71973;52.018;5.810;2023-08-06T06:25:18;2.77;;;1.97;;
43883;SDS011;71973;52.018;5.810;2023-08-06T06:27:43;3.67;;;1.67;;
43883;SDS011;71973;52.018;5.810;2023-08-06T06:30:09;2.97;;;1.63;;
43883;SDS011;71973;52.018;5.810;2023-08-06T06:32:37;2.17;;;1.88;;
43883;SDS011;71973;52.018;5.810;2023-08-06T06:35:02;2.07;;;1.70;;
43883;SDS011;71973;52.018;5.810;2023-08-06T06:37:28;3.00;;;2.42;;
43883;SDS011;71973;52.018;5.810;2023-08-06T06:39:53;2.83;;;2.13;;
43883;SDS011;71973;52.018;5.810;2023-08-06T06:42:19;2.20;;;2.00;;
43883;SDS011;71973;52.018;5.810;2023-08-06T06:44:44;3.70;;;2.17;;
43883;SDS011;71973;52.018;5.810;2023-08-06T06:47:10;2.23;;;1.87;;
43883;SDS011;71973;52.018;5.810;2023-08-06T06:49:35;2.10;;;1.90;;
43883;SDS011;71973;52.018;5.810;2023-08-06T06:52:01;2.33;;;1.93;;
43883;SDS011;71973;52.018;5.810;2023-08-06T06:54:27;2.43;;;2.17;;
43883;SDS011;71973;52.018;5.810;2023-08-06T06:56:52;3.07;;;2.30;;
43883;SDS011;71973;52.018;5.810;2023-08-06T06:59:18;3.20;;;2.90;;
43883;SDS011;71973;52.018;5.810;2023-08-06T07:01:43;2.60;;;2.27;;
43883;SDS011;71973;52.018;5.810;2023-08-06T07:04:09;3.10;;;2.67;;
43883;SDS011;71973;52.018;5.810;2023-08-06T07:06:34;2.43;;;2.23;;
43883;SDS011;71973;52.018;5.810;2023-08-06T07:09:00;2.93;;;2.63;;
43883;SDS011;71973;52.018;5.810;2023-08-06T07:11:25;3.77;;;3.03;;
43883;SDS011;71973;52.018;5.810;2023-08-06T07:13:56;3.00;;;2.70;;
43883;SDS011;71973;52.018;5.810;2023-08-06T07:16:23;3.35;;;2.55;;
43883;SDS011;71973;52.018;5.810;2023-08-06T07:18:49;3.13;;;2.40;;
43883;SDS011;71973;52.018;5.810;2023-08-06T07:21:16;3.85;;;3.45;;
43883;SDS011;71973;52.018;5.810;2023-08-06T07:23:41;3.17;;;2.70;;
43883;SDS011;71973;52.018;5.810;2023-08-06T07:26:07;4.63;;;3.00;;
43883;SDS011;71973;52.018;5.810;2023-08-06T07:28:34;3.35;;;2.88;;
43883;SDS011;71973;52.018;5.810;2023-08-06T07:30:59;3.43;;;3.10;;
43883;SDS011;71973;52.018;5.810;2023-08-06T07:33:25;3.90;;;3.50;;
43883;SDS011;71973;52.018;5.810;2023-08-06T07:35:50;3.80;;;3.50;;
43883;SDS011;71973;52.018;5.810;2023-08-06T07:38:16;4.00;;;3.60;;
43883;SDS011;71973;52.018;5.810;2023-08-06T07:40:41;4.23;;;3.73;;
43883;SDS011;71973;52.018;5.810;2023-08-06T07:43:07;4.13;;;3.73;;
43883;SDS011;71973;52.018;5.810;2023-08-06T07:45:33;4.23;;;3.83;;
43883;SDS011;71973;52.018;5.810;2023-08-06T07:48:02;5.03;;;3.75;;
43883;SDS011;71973;52.018;5.810;2023-08-06T07:50:28;5.03;;;4.50;;
43883;SDS011;71973;52.018;5.810;2023-08-06T07:52:54;4.93;;;4.20;;
43883;SDS011;71973;52.018;5.810;2023-08-06T07:55:19;5.70;;;4.27;;
43883;SDS011;71973;52.018;5.810;2023-08-06T07:57:45;4.77;;;4.00;;
43883;SDS011;71973;52.018;5.810;2023-08-06T08:00:10;4.87;;;4.37;;
43883;SDS011;71973;52.018;5.810;2023-08-06T08:02:36;5.45;;;4.63;;
43883;SDS011;71973;52.018;5.810;2023-08-06T08:05:01;5.10;;;4.57;;
43883;SDS011;71973;52.018;5.810;2023-08-06T08:07:27;4.77;;;4.00;;
43883;SDS011;71973;52.018;5.810;2023-08-06T08:09:55;4.85;;;4.43;;
43883;SDS011;71973;52.018;5.810;2023-08-06T08:12:21;6.15;;;4.22;;
43883;SDS011;71973;52.018;5.810;2023-08-06T08:14:47;5.80;;;4.80;;
43883;SDS011;71973;52.018;5.810;2023-08-06T08:17:12;4.90;;;4.33;;
43883;SDS011;71973;52.018;5.810;2023-08-06T08:19:38;4.63;;;4.10;;
43883;SDS011;71973;52.018;5.810;2023-08-06T08:22:04;4.80;;;4.35;;
43883;SDS011;71973;52.018;5.810;2023-08-06T08:24:30;4.97;;;4.23;;
43883;SDS011;71973;52.018;5.810;2023-08-06T08:26:55;5.50;;;5.00;;
43883;SDS011;71973;52.018;5.810;2023-08-06T08:29:21;5.20;;;4.70;;
43883;SDS011;71973;52.018;5.810;2023-08-06T08:31:47;5.75;;;4.13;;
43883;SDS011;71973;52.018;5.810;2023-08-06T08:34:15;6.35;;;4.55;;
43883;SDS011;71973;52.018;5.810;2023-08-06T08:36:41;4.32;;;3.78;;
43883;SDS011;71973;52.018;5.810;2023-08-06T08:39:07;5.95;;;5.30;;
43883;SDS011;71973;52.018;5.810;2023-08-06T08:41:33;4.80;;;4.30;;
43883;SDS011;71973;52.018;5.810;2023-08-06T08:44:00;5.45;;;4.57;;
43883;SDS011;71973;52.018;5.810;2023-08-06T08:46:34;5.90;;;4.87;;
43883;SDS011;71973;52.018;5.810;2023-08-06T08:49:03;6.00;;;4.90;;
43883;SDS011;71973;52.018;5.810;2023-08-06T08:51:29;8.97;;;5.00;;
43883;SDS011;71973;52.018;5.810;2023-08-06T08:53:55;7.60;;;4.70;;
43883;SDS011;71973;52.018;5.810;2023-08-06T08:56:24;6.97;;;4.57;;
43883;SDS011;71973;52.018;5.810;2023-08-06T08:58:50;6.65;;;5.10;;
43883;SDS011;71973;52.018;5.810;2023-08-06T09:01:18;7.13;;;5.25;;
43883;SDS011;71973;52.018;5.810;2023-08-06T09:03:45;5.63;;;4.53;;
43883;SDS011;71973;52.018;5.810;2023-08-06T09:08:47;6.18;;;4.93;;
43883;SDS011;71973;52.018;5.810;2023-08-06T09:11:31;6.50;;;5.05;;
43883;SDS011;71973;52.018;5.810;2023-08-06T09:14:08;5.63;;;4.70;;
43883;SDS011;71973;52.018;5.810;2023-08-06T09:16:34;5.10;;;4.25;;
43883;SDS011;71973;52.018;5.810;2023-08-06T09:19:06;7.45;;;4.68;;
43883;SDS011;71973;52.018;5.810;2023-08-06T09:21:37;7.03;;;4.55;;
43883;SDS011;71973;52.018;5.810;2023-08-06T09:24:07;5.53;;;4.55;;
43883;SDS011;71973;52.018;5.810;2023-08-06T09:26:34;4.97;;;4.25;;
43883;SDS011;71973;52.018;5.810;2023-08-06T09:28:59;8.93;;;4.90;;
43883;SDS011;71973;52.018;5.810;2023-08-06T09:31:25;6.47;;;4.37;;
43883;SDS011;71973;52.018;5.810;2023-08-06T09:34:01;7.75;;;4.30;;
43883;SDS011;71973;52.018;5.810;2023-08-06T09:36:27;5.85;;;3.88;;
43883;SDS011;71973;52.018;5.810;2023-08-06T09:38:53;5.60;;;4.30;;
43883;SDS011;71973;52.018;5.810;2023-08-06T09:41:27;6.83;;;4.00;;
43883;SDS011;71973;52.018;5.810;2023-08-06T09:43:53;4.40;;;3.97;;
43883;SDS011;71973;52.018;5.810;2023-08-06T09:46:19;6.37;;;4.10;;
43883;SDS011;71973;52.018;5.810;2023-08-06T09:48:46;7.78;;;4.32;;
43883;SDS011;71973;52.018;5.810;2023-08-06T09:51:11;5.80;;;4.57;;
43883;SDS011;71973;52.018;5.810;2023-08-06T09:53:38;5.07;;;4.22;;
43883;SDS011;71973;52.018;5.810;2023-08-06T09:56:06;5.35;;;4.18;;
43883;SDS011;71973;52.018;5.810;2023-08-06T09:58:32;7.00;;;4.47;;
43883;SDS011;71973;52.018;5.810;2023-08-06T10:00:58;6.07;;;4.35;;
43883;SDS011;71973;52.018;5.810;2023-08-06T10:03:25;4.95;;;4.43;;
43883;SDS011;71973;52.018;5.810;2023-08-06T10:05:51;4.70;;;3.83;;
43883;SDS011;71973;52.018;5.810;2023-08-06T10:08:16;6.07;;;4.30;;
43883;SDS011;71973;52.018;5.810;2023-08-06T10:10:42;5.17;;;4.67;;
43883;SDS011;71973;52.018;5.810;2023-08-06T10:13:09;5.65;;;4.22;;
43883;SDS011;71973;52.018;5.810;2023-08-06T10:15:35;4.40;;;4.00;;
43883;SDS011;71973;52.018;5.810;2023-08-06T10:18:03;6.47;;;5.78;;
43883;SDS011;71973;52.018;5.810;2023-08-06T10:20:34;6.80;;;5.35;;
43883;SDS011;71973;52.018;5.810;2023-08-06T10:23:03;7.47;;;4.97;;
43883;SDS011;71973;52.018;5.810;2023-08-06T10:25:33;5.07;;;4.03;;
43883;SDS011;71973;52.018;5.810;2023-08-06T10:28:01;5.47;;;3.97;;
43883;SDS011;71973;52.018;5.810;2023-08-06T10:30:33;4.78;;;3.70;;
43883;SDS011;71973;52.018;5.810;2023-08-06T10:33:05;7.78;;;3.80;;
43883;SDS011;71973;52.018;5.810;2023-08-06T10:35:33;5.83;;;3.50;;
43883;SDS011;71973;52.018;5.810;2023-08-06T10:38:07;6.50;;;3.50;;
43883;SDS011;71973;52.018;5.810;2023-08-06T10:41:21;6.75;;;3.17;;
43883;SDS011;71973;52.018;5.810;2023-08-06T10:43:28;6.82;;;3.58;;
43883;SDS011;71973;52.018;5.810;2023-08-06T10:51:02;2.88;;;2.58;;
43883;SDS011;71973;52.018;5.810;2023-08-06T10:53:29;4.55;;;2.50;;
43883;SDS011;71973;52.018;5.810;2023-08-06T10:55:55;5.03;;;2.43;;
43883;SDS011;71973;52.018;5.810;2023-08-06T10:58:20;3.17;;;2.57;;
43883;SDS011;71973;52.018;5.810;2023-08-06T11:00:46;3.50;;;2.50;;
43883;SDS011;71973;52.018;5.810;2023-08-06T11:03:11;3.60;;;2.47;;
43883;SDS011;71973;52.018;5.810;2023-08-06T11:05:37;4.23;;;2.33;;
43883;SDS011;71973;52.018;5.810;2023-08-06T11:10:29;8.00;;;2.30;;
43883;SDS011;71973;52.018;5.810;2023-08-06T11:13:00;4.15;;;2.53;;
43883;SDS011;71973;52.018;5.810;2023-08-06T11:15:27;3.33;;;2.15;;
43883;SDS011;71973;52.018;5.810;2023-08-06T11:17:53;2.88;;;1.95;;
43883;SDS011;71973;52.018;5.810;2023-08-06T11:20:19;3.67;;;2.17;;
43883;SDS011;71973;52.018;5.810;2023-08-06T11:22:47;8.82;;;1.95;;
43883;SDS011;71973;52.018;5.810;2023-08-06T11:25:12;2.47;;;1.90;;
43883;SDS011;71973;52.018;5.810;2023-08-06T11:27:38;3.10;;;1.97;;
43883;SDS011;71973;52.018;5.810;2023-08-06T11:30:03;3.13;;;1.70;;
43883;SDS011;71973;52.018;5.810;2023-08-06T11:32:29;3.58;;;1.65;;
43883;SDS011;71973;52.018;5.810;2023-08-06T11:34:55;4.37;;;1.63;;
43883;SDS011;71973;52.018;5.810;2023-08-06T11:37:21;2.20;;;1.70;;
43883;SDS011;71973;52.018;5.810;2023-08-06T11:39:49;3.25;;;2.08;;
43883;SDS011;71973;52.018;5.810;2023-08-06T11:42:15;5.07;;;1.85;;
43883;SDS011;71973;52.018;5.810;2023-08-06T11:44:41;3.70;;;2.00;;
43883;SDS011;71973;52.018;5.810;2023-08-06T11:47:13;1.80;;;1.50;;
43883;SDS011;71973;52.018;5.810;2023-08-06T11:49:41;2.30;;;1.50;;
43883;SDS011;71973;52.018;5.810;2023-08-06T11:54:59;3.08;;;1.85;;
43883;SDS011;71973;52.018;5.810;2023-08-06T11:57:33;2.03;;;1.60;;
43883;SDS011;71973;52.018;5.810;2023-08-06T12:00:05;2.53;;;1.50;;
43883;SDS011;71973;52.018;5.810;2023-08-06T12:02:33;2.60;;;1.80;;
43883;SDS011;71973;52.018;5.810;2023-08-06T12:07:40;3.35;;;1.67;;
43883;SDS011;71973;52.018;5.810;2023-08-06T12:10:10;3.33;;;1.70;;
43883;SDS011;71973;52.018;5.810;2023-08-06T12:12:36;4.20;;;1.70;;
43883;SDS011;71973;52.018;5.810;2023-08-06T12:15:03;1.80;;;1.42;;
43883;SDS011;71973;52.018;5.810;2023-08-06T12:17:29;2.13;;;1.67;;
43883;SDS011;71973;52.018;5.810;2023-08-06T12:19:55;2.57;;;1.77;;
43883;SDS011;71973;52.018;5.810;2023-08-06T12:22:20;2.67;;;1.83;;
43883;SDS011;71973;52.018;5.810;2023-08-06T12:24:46;6.07;;;2.10;;
43883;SDS011;71973;52.018;5.810;2023-08-06T12:27:12;3.22;;;1.83;;
43883;SDS011;71973;52.018;5.810;2023-08-06T12:29:45;4.47;;;1.90;;
43883;SDS011;71973;52.018;5.810;2023-08-06T12:32:12;3.00;;;1.92;;
43883;SDS011;71973;52.018;5.810;2023-08-06T12:34:38;2.40;;;1.75;;
43883;SDS011;71973;52.018;5.810;2023-08-06T12:37:04;2.40;;;1.88;;
43883;SDS011;71973;52.018;5.810;2023-08-06T12:39:31;2.05;;;1.73;;
43883;SDS011;71973;52.018;5.810;2023-08-06T12:41:57;3.50;;;1.88;;
43883;SDS011;71973;52.018;5.810;2023-08-06T12:44:24;3.47;;;1.80;;
43883;SDS011;71973;52.018;5.810;2023-08-06T12:46:50;3.00;;;1.73;;
43883;SDS011;71973;52.018;5.810;2023-08-06T12:49:17;4.28;;;1.90;;
43883;SDS011;71973;52.018;5.810;2023-08-06T12:51:42;3.95;;;1.83;;
43883;SDS011;71973;52.018;5.810;2023-08-06T12:54:08;3.50;;;2.20;;
43883;SDS011;71973;52.018;5.810;2023-08-06T12:56:34;5.77;;;2.13;;
43883;SDS011;71973;52.018;5.810;2023-08-06T12:58:59;4.60;;;2.10;;
43883;SDS011;71973;52.018;5.810;2023-08-06T13:01:25;7.47;;;2.10;;
43883;SDS011;71973;52.018;5.810;2023-08-06T13:03:51;5.57;;;1.90;;
43883;SDS011;71973;52.018;5.810;2023-08-06T13:06:16;4.27;;;1.77;;
43883;SDS011;71973;52.018;5.810;2023-08-06T13:08:42;4.60;;;2.00;;
43883;SDS011;71973;52.018;5.810;2023-08-06T13:11:07;4.57;;;2.30;;
43883;SDS011;71973;52.018;5.810;2023-08-06T13:13:33;9.20;;;2.50;;
43883;SDS011;71973;52.018;5.810;2023-08-06T13:15:58;3.40;;;1.93;;
43883;SDS011;71973;52.018;5.810;2023-08-06T13:18:24;5.93;;;2.00;;
43883;SDS011;71973;52.018;5.810;2023-08-06T13:20:49;7.50;;;2.30;;
43883;SDS011;71973;52.018;5.810;2023-08-06T13:23:19;6.45;;;1.65;;
43883;SDS011;71973;52.018;5.810;2023-08-06T13:25:45;5.80;;;1.87;;
43883;SDS011;71973;52.018;5.810;2023-08-06T13:28:10;5.43;;;1.80;;
43883;SDS011;71973;52.018;5.810;2023-08-06T13:30:36;6.70;;;1.80;;
43883;SDS011;71973;52.018;5.810;2023-08-06T13:33:06;4.50;;;1.85;;
43883;SDS011;71973;52.018;5.810;2023-08-06T13:35:32;4.28;;;1.75;;
43883;SDS011;71973;52.018;5.810;2023-08-06T13:37:58;4.47;;;1.77;;
43883;SDS011;71973;52.018;5.810;2023-08-06T13:40:23;5.00;;;2.43;;
43883;SDS011;71973;52.018;5.810;2023-08-06T13:42:49;4.00;;;1.80;;
43883;SDS011;71973;52.018;5.810;2023-08-06T13:45:14;3.23;;;2.03;;
43883;SDS011;71973;52.018;5.810;2023-08-06T13:47:41;3.60;;;1.87;;
43883;SDS011;71973;52.018;5.810;2023-08-06T13:50:06;3.58;;;1.70;;
43883;SDS011;71973;52.018;5.810;2023-08-06T13:52:32;3.63;;;1.83;;
43883;SDS011;71973;52.018;5.810;2023-08-06T13:55:00;3.45;;;1.70;;
43883;SDS011;71973;52.018;5.810;2023-08-06T13:57:25;5.47;;;1.90;;
43883;SDS011;71973;52.018;5.810;2023-08-06T13:59:51;2.67;;;1.57;;
43883;SDS011;71973;52.018;5.810;2023-08-06T14:02:16;3.03;;;1.40;;
43883;SDS011;71973;52.018;5.810;2023-08-06T14:04:42;2.57;;;1.60;;
43883;SDS011;71973;52.018;5.810;2023-08-06T14:07:07;1.90;;;1.23;;
43883;SDS011;71973;52.018;5.810;2023-08-06T14:09:33;4.10;;;1.47;;
43883;SDS011;71973;52.018;5.810;2023-08-06T14:11:59;3.50;;;1.75;;
43883;SDS011;71973;52.018;5.810;2023-08-06T14:14:25;3.20;;;1.45;;
43883;SDS011;71973;52.018;5.810;2023-08-06T14:16:52;4.43;;;1.52;;
43883;SDS011;71973;52.018;5.810;2023-08-06T14:19:19;2.35;;;1.48;;
43883;SDS011;71973;52.018;5.810;2023-08-06T14:21:44;5.03;;;1.70;;
43883;SDS011;71973;52.018;5.810;2023-08-06T14:24:10;2.80;;;1.50;;
43883;SDS011;71973;52.018;5.810;2023-08-06T14:26:35;2.00;;;1.10;;
43883;SDS011;71973;52.018;5.810;2023-08-06T14:29:01;3.87;;;1.87;;
43883;SDS011;71973;52.018;5.810;2023-08-06T14:31:27;4.38;;;1.35;;
43883;SDS011;71973;52.018;5.810;2023-08-06T14:33:52;5.07;;;1.77;;
43883;SDS011;71973;52.018;5.810;2023-08-06T14:36:18;2.30;;;1.40;;
43883;SDS011;71973;52.018;5.810;2023-08-06T14:38:44;2.35;;;1.25;;
43883;SDS011;71973;52.018;5.810;2023-08-06T14:41:09;3.60;;;1.40;;
43883;SDS011;71973;52.018;5.810;2023-08-06T14:43:35;1.83;;;1.33;;
43883;SDS011;71973;52.018;5.810;2023-08-06T14:46:01;1.73;;;1.30;;
43883;SDS011;71973;52.018;5.810;2023-08-06T14:48:27;3.57;;;1.50;;
43883;SDS011;71973;52.018;5.810;2023-08-06T14:50:53;2.27;;;1.50;;
43883;SDS011;71973;52.018;5.810;2023-08-06T14:53:19;3.22;;;1.20;;
43883;SDS011;71973;52.018;5.810;2023-08-06T14:55:45;2.60;;;1.30;;
43883;SDS011;71973;52.018;5.810;2023-08-06T14:58:10;2.83;;;1.20;;
43883;SDS011;71973;52.018;5.810;2023-08-06T15:00:36;1.80;;;1.10;;
43883;SDS011;71973;52.018;5.810;2023-08-06T15:03:01;4.77;;;1.23;;
43883;SDS011;71973;52.018;5.810;2023-08-06T15:05:27;2.77;;;1.40;;
43883;SDS011;71973;52.018;5.810;2023-08-06T15:07:52;2.50;;;1.30;;
43883;SDS011;71973;52.018;5.810;2023-08-06T15:10:18;1.77;;;1.10;;